Terminal Aerodrome Forecast
Issued by NWS North Platte, NE

Home | Current Version | Previous Version | Graphics & Text | Print | Product List | Glossary On
Versions: 1 2 3 4 5 6 7 8 9 10 11 12 13 14 15 16 17 18 19 20 21 22 23
000
FTUS43 KLBF 060200 AAB
TAFVTN
TAF AMD
KVTN 060200Z 0602/0624 31024G33KT 2SM TSRA SCT020CB OVC050
     FM060300 35023G32KT P6SM VCTS SCT025CB OVC060
     FM060600 34014KT 4SM -SHRA BR OVC025
     FM061300 36013KT P6SM SCT025 BKN100=

USA.gov is the U.S. government's official web portal to all federal, state and local government web resources and services.